Terminal Aerodrome Forecast
Issued by NWS Charleston, WV

Current Version | Previous Version | Text Only | Print | Product List | Glossary Off
Versions: 1 2 3 4 5 6 7 8 9 10 11 12 13 14 15 16 17 18 19 20 21

000
FTUS41 KRLX 290200 AAA
TAFCRW
TAF AMD
KCRW 290225Z 2902/2924 32005KT 6SM -DZ BR OVC008
      TEMPO 2902/2906 3SM -DZ BR OVC004
     FM290600 00000KT 1/2SM FG OVC002
     FM291300 VRB03KT 1SM BR SCT001 BKN006
     FM291400 02004KT 3SM BR BKN010
     FM291700 01004KT P6SM BKN015
     FM292100 36004KT P6SM BKN025=

USA.gov is the U.S. government's official web portal to all federal, state and local government web resources and services.